AirNav   Air Wisconsin pilot careers
 
 936 users online  

1H6 Harvey Young Airport
Tulsa, Oklahoma, USA

GOING TO TULSA?


FAA INFORMATION EFFECTIVE 08 NOVEMBER 2018

Location

FAA Identifier: 1H6
Lat/Long: 36-08-20.1000N / 095-49-30.2000W
36-08.335000N / 095-49.503333W
36.1389167 / -95.8250556
(estimated)
Elevation: 750 ft. / 228.6 m (surveyed)
Variation: 06E (1985)
From city: 8 miles E of TULSA, OK
Time zone: UTC -6 (UTC -5 during Daylight Saving Time)
Zip code: 74108

Airport Operations

Airport use: Open to the public
Activation date: 11/1941
Control tower: no
ARTCC: KANSAS CITY CENTER
FSS: MC ALESTER FLIGHT SERVICE STATION
NOTAMs facility: MLC (NOTAM-D service available)
Attendance: MON-FRI 0800-1700
ARPT UNATNDD FEDERAL HOLS.
Wind indicator: yes
Segmented circle: no
Beacon: white-green (lighted land airport)
Operates sunset to sunrise.

Airport Communications

CTAF/UNICOM: 122.8
WX ASOS at TUL (5 nm NW): PHONE 918-831-6772
WX ASOS at RVS (10 nm SW): PHONE 918-299-0740
WX AWOS-3 at OWP (16 nm W): 118.325 (918-246-2635)
WX AWOS-3 at GCM (19 nm NE): 119.925 (918-343-0184)

Nearby radio navigation aids

VOR radial/distance  VOR name  Freq  Var
TULr199/3.9TULSA VORTAC114.4008E
GNPr022/14.8GLENPOOL VOR/DME110.6006E
OKMr356/26.8OKMULGEE VOR/DME114.9008E

 
NDB name  Hdg/Dist  Freq  Var  ID
OILLR048/4.033803ETU - ..-
WILLIAM POGUE091/16.136206EOWP --- .-- .--.

Airport Services

Fuel available: 100LL
Parking: hangars and tiedowns
Airframe service: MINOR
Powerplant service: MINOR
Bottled oxygen: NONE
Bulk oxygen: NONE

Runway Information

Runway 17/35

Dimensions: 2580 x 40 ft. / 786 x 12 m
Surface: asphalt, in poor condition
SEVERE CRACKING AND RAVELING.
Runway edge markings: MARKINGS SEVERELY FADED.
RUNWAY 17  RUNWAY 35
Latitude: 36-08.548213N36-08.122905N
Longitude: 095-49.505300W095-49.500102W
Elevation: 733.0 ft.733.0 ft.
Gradient: 0.4%0.4%
Traffic pattern: left
RIGHT TRAFFIC FOR HELICOPTERS.
left
Runway heading: 173 magnetic, 179 true353 magnetic, 359 true
Markings: basic, in poor conditionbasic, in poor condition
Obstructions: 23 ft. trees, 366 ft. from runway, 7:1 slope to clear52 ft. trees, 275 ft. from runway, 120 ft. right of centerline, 1:1 slope to clear

Runway N/S

Dimensions: 2580 x 80 ft. / 786 x 24 m
Surface: turf, in poor condition
RWY ROUGH AND UNEVEN.
RUNWAY N  RUNWAY S
Traffic pattern: leftleft
Obstructions: 30 ft. trees, 40 ft. left of centerline40 ft. trees, 20 ft. from runway, 44 ft. right of centerline

Airport Ownership and Management from official FAA records

Ownership: Privately-owned
Owner: AVIATION MANAGEMENT GROUP
8720 JACK YATES AVE
TULSA, OK 74132
Phone 918-298-4044
Manager: DAVID GUZMAN
8720 JACK BATES AVE
TULSA, OK 74132
Phone 918-298-4044
CHAIRMAN.

Airport Operational Statistics

Aircraft based on the field: 42
Single engine airplanes: 39
Multi engine airplanes: 1
Ultralights: 2
    
Aircraft operations: avg 29/week *
67% local general aviation
33% transient general aviation
* for 12-month period ending 03 November 2016

Additional Remarks

TWYS THIN & SOFT IN HOT WEATHER.
ULTRALIGHTS ON AND IN VICINITY OF AIRPORT.
BIRDS ON AND IN VICINITY OF AIRPORT.

Instrument Procedures

There are no published instrument procedures at 1H6.

Some nearby airports with instrument procedures:

KTUL - Tulsa International Airport (5 nm NW)
KRVS - Richard Lloyd Jones Jr Airport (10 nm SW)
KOWP - William R Pogue Municipal Airport (16 nm W)
KGCM - Claremore Regional Airport (19 nm NE)
H71 - Mid-America Industrial Airport (25 nm E)
 
Loc | Ops | Rwys | IFR | FBO | Links
Com | Nav | Svcs | Stats | Notes


 
Area around 1H6 (Harvey Young Airport)
 
Road maps at: MapQuest Bing Google
 
Aerial photo
WARNING: Photo may not be current or correct
Aerial photo of 1H6 (Harvey Young Airport)
Photo taken 26-Jan-2010

Do you have a better or more recent aerial photo of Harvey Young Airport that you would like to share? If so, please send us your photo.

 
Sectional chart

 
Airport distance calculator
Flying to Harvey Young Airport? Find the distance to fly.

From to 1H6

Sunrise and sunset
Times for 15-Nov-2018
 Local
(UTC-6)
 Zulu
(UTC)
Morning civil twilight06:3412:34
Sunrise07:0113:01
Sunset17:1523:15
Evening civil twilight17:4223:42

Current date and time
Zulu (UTC)  16-Nov-2018 02:36:58
Local (UTC-6)  15-Nov-2018 20:36:58
 
METAR
KTUL 
5nm NW 
160153Z 16005KT 10SM CLR 09/01 A3002 RMK AO2 SLP169 T00890006
KRVS 
9nm SW 
160153Z 20003KT 10SM CLR 07/01 A3004 RMK AO2 SLP181 T00670006
KOWP 
16nm W 
160215Z AUTO 20005KT 10SM CLR 14/00 A3003 RMK AO2 T01380000
KGCM 
19nm NE 
160215Z AUTO 17007KT 10SM CLR 08/00 A3006 RMK AO2 TSNO
TAF
KTUL 
5nm NW 
151720Z 1518/1618 19011KT P6SM SKC FM160000 20005KT P6SM SKC FM160800 34005KT P6SM FEW250
KRVS 
9nm SW 
151720Z 1518/1618 19010KT P6SM SKC FM160000 VRB03KT P6SM SKC
NOTAMs
Click for the latest NOTAMs
NOTAMs are issued by the DoD/FAA and will open in a separate window not controlled by AirNav.

 

 
 

FBO, Fuel Providers, and Aircraft Ground Support

  
 Business Name 
 
 Contact 
 
 Services / Description 
 
Fuel Prices
 
Comments
  
Harvey Young Airport 918-437-2877
no information available

If you are affiliated with Harvey Young Airport and would like to show here your services, contact info, web link, logo, and more, click here
100LL
SS $3.80 
 Updated 01-Nov-2018
 
   write
SS=Self service
Update Fuel Prices
 

Would you like to see your business listed on this page?

 If your business provides an interesting product or service to pilots, flight crews, aircraft, or users of the Harvey Young Airport, you should consider listing it here.  To start the listing process, click on the button below
 
Add a business
 

Other Pages about Harvey Young Airport

Update a link
 
Copyright © AirNav, LLC. All rights reserved. Privacy Policy  Contact